La Porte, Indiana
Current Conditions -  °F | °C
As of 6:15 PM on Monday 20 Oct 2014 (Local Time) from KPPO Reporting Station
Overcast Overcast  
Wind Chill: 55°   Ceiling: 4600
Heat Index: 55°   Visibility: 10mi
Dew Point: 50°   Wind: 13mph
Humidity: 85%   Direction: 360°N
Pressure: 29.93"   Gusts: 17mph
Location:  41.61°N, 86.72°W
Report Text: KPPO 202315Z AUTO 36011G15KT 10SM SCT017 BKN046 OVC065 13/10 A2993 RMK AO2 T01270102
Loading
Personal Weather Stations






























Interactive Weather Map
Tropical Storm Tracking
New forecast layout! Learn more

10-Day Weather Forecast

Advertisements
Track Severe Weather on mobile